createdAt,value
2024-03-31T00:00:44.849Z,10.87
2024-03-31T00:01:44.825Z,10.90
2024-03-31T00:02:44.817Z,10.88
2024-03-31T00:03:44.823Z,10.99
2024-03-31T00:04:44.788Z,10.99
2024-03-31T00:05:44.787Z,10.91
2024-03-31T00:06:44.763Z,10.98
2024-03-31T00:07:44.745Z,10.83
2024-03-31T00:08:44.735Z,10.81
2024-03-31T00:09:44.721Z,10.90
2024-03-31T00:10:44.707Z,10.91
2024-03-31T00:11:44.697Z,10.83
2024-03-31T00:12:44.681Z,10.81
2024-03-31T00:13:44.693Z,10.76
2024-03-31T00:14:44.661Z,10.78
2024-03-31T00:15:44.633Z,10.69
2024-03-31T00:16:44.634Z,10.75
2024-03-31T00:17:44.614Z,10.80
2024-03-31T00:18:44.603Z,10.68
2024-03-31T00:19:44.586Z,10.69
2024-03-31T00:20:44.568Z,10.78
2024-03-31T00:21:44.549Z,10.81
2024-03-31T00:22:44.538Z,10.87
2024-03-31T00:23:44.532Z,10.95
2024-03-31T00:24:44.512Z,10.95
2024-03-31T00:25:44.506Z,10.93
2024-03-31T00:26:44.483Z,10.94
2024-03-31T00:27:44.481Z,10.99
2024-03-31T00:28:44.459Z,10.95
2024-03-31T00:29:44.454Z,10.95
2024-03-31T00:30:44.424Z,10.98
2024-03-31T00:31:44.413Z,10.98
2024-03-31T00:32:44.399Z,10.94
2024-03-31T00:33:44.381Z,10.94
2024-03-31T00:34:44.371Z,10.90
2024-03-31T00:35:44.362Z,10.93
2024-03-31T00:36:44.347Z,10.88
2024-03-31T00:37:44.324Z,10.80
2024-03-31T00:38:44.315Z,10.72
2024-03-31T00:39:44.298Z,10.72
2024-03-31T00:40:44.288Z,10.68
2024-03-31T00:41:44.287Z,10.66
2024-03-31T00:42:44.258Z,10.69
2024-03-31T00:43:44.251Z,10.62
2024-03-31T00:44:44.232Z,10.63
2024-03-31T00:45:44.255Z,10.80
2024-03-31T00:46:44.206Z,10.68
2024-03-31T00:47:44.213Z,10.83
2024-03-31T00:48:44.177Z,10.93
2024-03-31T00:49:44.162Z,10.84
2024-03-31T00:50:44.150Z,10.87
2024-03-31T00:51:44.131Z,10.86
2024-03-31T00:52:44.120Z,10.94
2024-03-31T00:53:44.103Z,10.90
2024-03-31T00:54:44.094Z,10.90
2024-03-31T00:55:44.075Z,10.80
2024-03-31T00:56:44.066Z,10.70
2024-03-31T00:57:44.047Z,10.70
2024-03-31T00:58:44.041Z,10.69
2024-03-31T00:59:44.030Z,10.65
2024-03-31T01:00:44.011Z,10.66
2024-03-31T01:01:44.105Z,10.62
2024-03-31T01:02:43.980Z,10.58
2024-03-31T01:03:43.965Z,10.70
2024-03-31T01:04:43.954Z,10.68
2024-03-31T01:05:43.939Z,10.68
2024-03-31T01:06:43.922Z,10.78
2024-03-31T01:07:43.907Z,10.84
2024-03-31T01:08:43.899Z,10.78
2024-03-31T01:09:43.880Z,10.69
2024-03-31T01:10:43.868Z,10.69
2024-03-31T01:11:43.852Z,10.72
2024-03-31T01:12:43.838Z,10.60
2024-03-31T01:13:43.822Z,10.49
2024-03-31T01:14:43.812Z,10.54
2024-03-31T01:15:43.793Z,10.51
2024-03-31T01:16:43.786Z,10.47
2024-03-31T01:17:43.794Z,10.51
2024-03-31T01:18:43.753Z,10.49
2024-03-31T01:19:43.738Z,10.46
2024-03-31T01:20:43.726Z,10.46
2024-03-31T01:21:43.712Z,10.39
2024-03-31T01:22:43.706Z,10.38
2024-03-31T01:23:43.685Z,10.42
2024-03-31T01:24:43.671Z,10.36
2024-03-31T01:25:43.654Z,10.28
2024-03-31T01:26:43.644Z,10.36
2024-03-31T01:27:43.627Z,10.42
2024-03-31T01:28:43.614Z,10.39
2024-03-31T01:30:43.597Z,10.39
2024-03-31T01:31:43.568Z,10.29
2024-03-31T01:32:43.555Z,10.31
2024-03-31T01:33:43.558Z,10.31
2024-03-31T01:34:43.526Z,10.28
2024-03-31T01:35:43.520Z,10.28
2024-03-31T01:36:43.507Z,10.31
2024-03-31T01:37:43.480Z,10.44
2024-03-31T01:38:51.231Z,10.34
2024-03-31T01:39:43.455Z,10.46
2024-03-31T01:40:43.452Z,10.36
2024-03-31T01:41:43.438Z,10.35
2024-03-31T01:42:43.409Z,10.44
2024-03-31T01:43:43.415Z,10.39
2024-03-31T01:44:43.387Z,10.35
2024-03-31T01:45:43.366Z,10.38
2024-03-31T01:46:43.381Z,10.42
2024-03-31T01:47:43.372Z,10.35
2024-03-31T01:48:43.324Z,10.36
2024-03-31T01:49:43.323Z,10.34
2024-03-31T01:50:43.293Z,10.42
2024-03-31T01:51:43.282Z,10.54
2024-03-31T01:52:43.264Z,10.51
2024-03-31T01:53:43.453Z,10.49
2024-03-31T01:54:43.237Z,10.51
2024-03-31T01:55:43.222Z,10.51
2024-03-31T01:56:43.207Z,10.54
2024-03-31T01:57:43.198Z,10.63
2024-03-31T01:58:43.183Z,10.70
2024-03-31T01:59:43.170Z,10.65
2024-03-31T02:00:43.148Z,10.57
2024-03-31T02:01:43.143Z,10.54
2024-03-31T02:02:43.120Z,10.55
2024-03-31T02:03:43.108Z,10.46
2024-03-31T02:04:43.093Z,10.54
2024-03-31T02:05:43.088Z,10.57
2024-03-31T02:06:43.068Z,10.57
2024-03-31T02:07:43.054Z,10.54
2024-03-31T02:08:43.035Z,10.57
2024-03-31T02:09:43.021Z,10.52
2024-03-31T02:10:43.028Z,10.52
2024-03-31T02:11:42.994Z,10.54
2024-03-31T02:12:42.977Z,10.36
2024-03-31T02:13:42.974Z,10.39
2024-03-31T02:14:42.947Z,10.28
2024-03-31T02:15:42.936Z,10.26
2024-03-31T02:16:42.923Z,10.28
2024-03-31T02:17:42.908Z,10.24
2024-03-31T02:18:42.887Z,10.18
2024-03-31T02:19:42.879Z,10.16
2024-03-31T02:20:42.867Z,10.24
2024-03-31T02:21:42.859Z,10.32
2024-03-31T02:22:42.844Z,10.26
2024-03-31T02:23:42.824Z,10.24
2024-03-31T02:24:42.809Z,10.17
2024-03-31T02:25:42.798Z,10.07
2024-03-31T02:26:42.783Z,10.01
2024-03-31T02:27:42.778Z,9.95
2024-03-31T02:28:42.757Z,9.96
2024-03-31T02:29:42.740Z,9.96
2024-03-31T02:31:42.703Z,9.85
2024-03-31T02:32:42.693Z,9.85
2024-03-31T02:33:42.682Z,9.78
2024-03-31T02:34:42.665Z,9.78
2024-03-31T02:35:42.660Z,9.81
2024-03-31T02:36:42.655Z,9.80
2024-03-31T02:37:42.630Z,9.80
2024-03-31T02:38:42.608Z,9.81
2024-03-31T02:39:42.589Z,9.81
2024-03-31T02:40:42.590Z,9.78
2024-03-31T02:41:42.563Z,9.89
2024-03-31T02:42:42.555Z,9.91
2024-03-31T02:43:42.547Z,9.85
2024-03-31T02:44:42.539Z,9.81
2024-03-31T02:45:42.543Z,9.77
2024-03-31T02:46:42.513Z,9.77
2024-03-31T02:47:42.516Z,9.74
2024-03-31T02:49:42.463Z,9.85
2024-03-31T02:50:42.435Z,9.78
2024-03-31T02:51:42.444Z,9.77
2024-03-31T02:52:42.422Z,9.74
2024-03-31T02:53:42.428Z,9.62
2024-03-31T02:54:42.386Z,9.65
2024-03-31T02:55:42.371Z,9.67
2024-03-31T02:56:42.355Z,9.58
2024-03-31T02:57:42.432Z,9.70
2024-03-31T02:58:42.321Z,9.56
2024-03-31T02:59:42.313Z,9.56
2024-03-31T03:00:42.322Z,9.44
2024-03-31T03:01:42.276Z,9.56
2024-03-31T03:02:49.222Z,9.55
2024-03-31T03:03:42.258Z,9.49
2024-03-31T03:04:42.240Z,9.59
2024-03-31T03:05:42.219Z,9.56
2024-03-31T03:06:42.236Z,9.56
2024-03-31T03:07:42.192Z,9.50
2024-03-31T03:08:42.180Z,9.44
2024-03-31T03:09:42.199Z,9.56
2024-03-31T03:10:42.151Z,9.52
2024-03-31T03:11:42.154Z,9.62
2024-03-31T03:12:42.140Z,9.70
2024-03-31T03:13:42.108Z,9.65
2024-03-31T03:14:42.103Z,9.62
2024-03-31T03:15:42.110Z,9.58
2024-03-31T03:16:42.064Z,9.62
2024-03-31T03:17:42.048Z,9.55
2024-03-31T03:18:42.068Z,9.56
2024-03-31T03:19:42.022Z,9.44
2024-03-31T03:20:42.007Z,9.59
2024-03-31T03:21:42.033Z,9.45
2024-03-31T03:22:41.981Z,9.48
2024-03-31T03:23:41.966Z,9.50
2024-03-31T03:24:42.028Z,9.44
2024-03-31T03:25:41.946Z,9.55
2024-03-31T03:26:41.920Z,9.67
2024-03-31T03:27:41.917Z,9.68
2024-03-31T03:28:41.894Z,9.70
2024-03-31T03:29:41.879Z,9.65
2024-03-31T03:30:41.899Z,9.59
2024-03-31T03:31:41.847Z,9.75
2024-03-31T03:32:41.854Z,9.75
2024-03-31T03:33:41.886Z,9.77
2024-03-31T03:34:41.824Z,9.65
2024-03-31T03:35:41.788Z,9.58
2024-03-31T03:36:41.798Z,9.55
2024-03-31T03:37:41.760Z,9.52
2024-03-31T03:38:41.776Z,9.52
2024-03-31T03:39:41.757Z,9.50
2024-03-31T03:40:41.723Z,9.45
2024-03-31T03:41:41.719Z,9.50
2024-03-31T03:42:41.727Z,9.55
2024-03-31T03:43:41.676Z,9.38
2024-03-31T03:44:41.663Z,9.49
2024-03-31T03:45:41.658Z,9.41
2024-03-31T03:46:41.639Z,9.50
2024-03-31T03:47:41.618Z,9.55
2024-03-31T03:48:41.622Z,9.56
2024-03-31T03:49:41.590Z,9.73
2024-03-31T03:50:41.575Z,9.56
2024-03-31T03:51:41.592Z,9.55
2024-03-31T03:52:41.561Z,9.62
2024-03-31T03:53:41.531Z,9.73
2024-03-31T03:54:41.535Z,9.73
2024-03-31T03:55:41.501Z,9.60
2024-03-31T03:56:41.490Z,9.77
2024-03-31T03:57:41.486Z,9.75
2024-03-31T03:58:41.469Z,9.83
2024-03-31T03:59:41.446Z,9.60
2024-03-31T04:00:41.489Z,9.60
2024-03-31T04:01:41.416Z,9.63
2024-03-31T04:02:41.413Z,9.58
2024-03-31T04:03:41.387Z,9.60
2024-03-31T04:04:41.376Z,9.62
2024-03-31T04:05:41.361Z,9.59
2024-03-31T04:06:41.354Z,9.53
2024-03-31T04:07:41.329Z,9.56
2024-03-31T04:08:41.318Z,9.53
2024-03-31T04:09:41.319Z,9.41
2024-03-31T04:10:41.306Z,9.55
2024-03-31T04:11:41.273Z,9.59
2024-03-31T04:12:41.272Z,9.55
2024-03-31T04:13:41.258Z,9.58
2024-03-31T04:14:41.231Z,9.56
2024-03-31T04:15:41.218Z,9.48
2024-03-31T04:16:41.201Z,9.60
2024-03-31T04:17:41.185Z,9.58
2024-03-31T04:18:41.214Z,9.62
2024-03-31T04:19:41.164Z,9.58
2024-03-31T04:20:41.143Z,9.59
2024-03-31T04:21:41.141Z,9.58
2024-03-31T04:22:41.120Z,9.67
2024-03-31T04:23:41.098Z,9.67
2024-03-31T04:24:41.099Z,9.70
2024-03-31T04:25:41.068Z,9.63
2024-03-31T04:26:41.057Z,9.68
2024-03-31T04:27:41.048Z,9.65
2024-03-31T04:28:41.032Z,9.70
2024-03-31T04:29:41.019Z,9.74
2024-03-31T04:30:41.021Z,9.86
2024-03-31T04:31:40.980Z,9.91
2024-03-31T04:32:40.970Z,9.98
2024-03-31T04:33:40.972Z,10.06
2024-03-31T04:34:40.941Z,9.98
2024-03-31T04:35:40.922Z,9.96
2024-03-31T04:36:40.921Z,9.92
2024-03-31T04:37:40.894Z,9.88
2024-03-31T04:38:40.882Z,10.04
2024-03-31T04:39:40.875Z,10.11
2024-03-31T04:40:40.859Z,9.98
2024-03-31T04:41:40.838Z,9.91
2024-03-31T04:42:40.859Z,9.95
2024-03-31T04:43:40.807Z,9.80
2024-03-31T04:44:40.794Z,9.74
2024-03-31T04:45:40.843Z,9.77
2024-03-31T04:46:40.764Z,9.65
2024-03-31T04:47:40.747Z,9.73
2024-03-31T04:48:40.744Z,9.73
2024-03-31T04:49:40.719Z,9.62
2024-03-31T04:50:40.705Z,9.68
2024-03-31T04:51:40.697Z,9.62
2024-03-31T04:52:40.695Z,9.58
2024-03-31T04:53:40.665Z,9.60
2024-03-31T04:54:40.669Z,9.53
2024-03-31T04:55:40.635Z,9.52
2024-03-31T04:56:40.669Z,9.44
2024-03-31T04:57:40.608Z,9.44
2024-03-31T04:58:40.592Z,9.45
2024-03-31T04:59:40.576Z,9.48
2024-03-31T05:00:40.613Z,9.45
2024-03-31T05:01:40.554Z,9.41
2024-03-31T05:02:40.570Z,9.59
2024-03-31T05:03:40.525Z,9.56
2024-03-31T05:04:40.504Z,9.44
2024-03-31T05:05:40.487Z,9.59
2024-03-31T05:06:40.497Z,9.44
2024-03-31T05:07:40.466Z,9.56
2024-03-31T05:08:40.456Z,9.60
2024-03-31T05:09:40.471Z,9.59
2024-03-31T05:10:40.465Z,9.58
2024-03-31T05:11:40.402Z,9.58
2024-03-31T05:12:40.393Z,9.58
2024-03-31T05:13:40.372Z,9.58
2024-03-31T05:14:40.363Z,9.71
2024-03-31T05:15:40.401Z,9.77
2024-03-31T05:16:40.362Z,9.81
2024-03-31T05:17:40.323Z,9.98
2024-03-31T05:18:40.307Z,10.02
2024-03-31T05:19:40.287Z,9.92
2024-03-31T05:20:40.274Z,10.10
2024-03-31T05:21:40.255Z,9.99
2024-03-31T05:22:40.244Z,9.96
2024-03-31T05:23:40.227Z,10.01
2024-03-31T05:24:40.217Z,9.96
2024-03-31T05:25:40.205Z,9.91
2024-03-31T05:26:40.186Z,9.89
2024-03-31T05:27:40.220Z,9.85
2024-03-31T05:28:48.780Z,9.80
2024-03-31T05:29:40.140Z,9.80
2024-03-31T05:30:40.170Z,9.68
2024-03-31T05:31:40.120Z,9.75
2024-03-31T05:32:40.109Z,9.71
2024-03-31T05:33:40.151Z,9.70
2024-03-31T05:34:40.087Z,9.70
2024-03-31T05:35:40.057Z,9.67
2024-03-31T05:36:40.066Z,9.75
2024-03-31T05:37:40.072Z,9.70
2024-03-31T05:38:40.016Z,9.67
2024-03-31T05:39:40.028Z,9.77
2024-03-31T05:40:39.987Z,9.83
2024-03-31T05:41:39.970Z,9.83
2024-03-31T05:42:39.965Z,9.81
2024-03-31T05:43:39.949Z,9.91
2024-03-31T05:44:39.933Z,9.93
2024-03-31T05:45:39.995Z,9.81
2024-03-31T05:46:39.926Z,9.85
2024-03-31T05:47:39.902Z,9.89
2024-03-31T05:48:39.879Z,9.80
2024-03-31T05:49:39.870Z,9.83
2024-03-31T05:50:39.848Z,9.78
2024-03-31T05:51:39.827Z,9.93
2024-03-31T05:52:39.816Z,9.99
2024-03-31T05:53:39.801Z,9.98
2024-03-31T05:54:39.803Z,10.07
2024-03-31T05:55:40.214Z,10.10
2024-03-31T05:56:39.759Z,10.10
2024-03-31T05:57:39.761Z,10.04
2024-03-31T05:58:39.732Z,10.11
2024-03-31T05:59:39.718Z,10.13
2024-03-31T06:00:39.704Z,10.06
2024-03-31T06:01:39.688Z,10.13
2024-03-31T06:02:39.676Z,10.02
2024-03-31T06:03:39.659Z,10.13
2024-03-31T06:04:39.646Z,10.16
2024-03-31T06:05:39.666Z,10.10
2024-03-31T06:06:39.670Z,10.22
2024-03-31T06:07:39.627Z,10.31
2024-03-31T06:08:39.589Z,10.39
2024-03-31T06:09:39.573Z,10.36
2024-03-31T06:10:40.833Z,10.54
2024-03-31T06:11:39.546Z,10.51
2024-03-31T06:12:39.535Z,10.62
2024-03-31T06:13:39.516Z,10.72
2024-03-31T06:14:39.510Z,10.84
2024-03-31T06:15:39.496Z,10.84
2024-03-31T06:16:39.477Z,11.01
2024-03-31T06:17:39.466Z,11.03
2024-03-31T06:18:39.466Z,11.05
2024-03-31T06:19:39.432Z,11.06
2024-03-31T06:20:39.421Z,11.19
2024-03-31T06:21:39.420Z,11.16
2024-03-31T06:22:39.395Z,11.23
2024-03-31T06:23:39.378Z,11.23
2024-03-31T06:24:39.365Z,11.27
2024-03-31T06:25:39.350Z,11.27
2024-03-31T06:26:39.342Z,11.30
2024-03-31T06:27:39.329Z,11.28
2024-03-31T06:28:39.320Z,11.31
2024-03-31T06:29:39.292Z,11.39
2024-03-31T06:30:39.296Z,11.42
2024-03-31T06:31:39.267Z,11.45
2024-03-31T06:32:41.042Z,11.67
2024-03-31T06:33:39.238Z,11.64
2024-03-31T06:34:39.239Z,11.64
2024-03-31T06:35:39.215Z,11.72
2024-03-31T06:36:39.201Z,11.75
2024-03-31T06:37:39.253Z,11.85
2024-03-31T06:38:39.183Z,11.87
2024-03-31T06:39:39.178Z,11.84
2024-03-31T06:40:39.146Z,11.97
2024-03-31T06:41:39.131Z,12.03
2024-03-31T06:42:39.121Z,11.97
2024-03-31T06:43:39.112Z,11.94
2024-03-31T06:44:39.093Z,11.87
2024-03-31T06:45:39.078Z,11.88
2024-03-31T06:46:39.069Z,11.96
2024-03-31T06:47:39.066Z,11.84
2024-03-31T06:48:39.042Z,11.84
2024-03-31T06:49:39.027Z,11.81
2024-03-31T06:50:39.015Z,11.82
2024-03-31T06:51:38.996Z,11.97
2024-03-31T06:52:39.001Z,11.87
2024-03-31T06:53:38.986Z,11.90
2024-03-31T06:54:38.969Z,11.97
2024-03-31T06:55:38.946Z,12.13
2024-03-31T06:56:38.937Z,12.23
2024-03-31T06:57:39.043Z,12.22
2024-03-31T06:58:38.928Z,12.26
2024-03-31T06:59:38.894Z,12.21
2024-03-31T07:00:38.887Z,12.22
2024-03-31T07:01:38.869Z,12.25
2024-03-31T07:02:38.856Z,12.19
2024-03-31T07:03:38.843Z,12.13
2024-03-31T07:04:38.830Z,12.05
2024-03-31T07:05:38.817Z,12.07
2024-03-31T07:06:38.803Z,11.97
2024-03-31T07:07:38.810Z,11.88
2024-03-31T07:08:38.777Z,11.93
2024-03-31T07:09:38.792Z,11.87
2024-03-31T07:10:38.763Z,11.72
2024-03-31T07:11:38.736Z,11.85
2024-03-31T07:12:38.723Z,11.78
2024-03-31T07:13:38.792Z,11.82
2024-03-31T07:14:38.715Z,11.79
2024-03-31T07:15:38.688Z,11.81
2024-03-31T07:16:38.669Z,11.69
2024-03-31T07:17:38.660Z,11.75
2024-03-31T07:18:38.640Z,11.88
2024-03-31T07:19:38.672Z,11.79
2024-03-31T07:20:38.613Z,11.84
2024-03-31T07:21:38.601Z,11.74
2024-03-31T07:22:38.590Z,11.78
2024-03-31T07:23:40.486Z,11.87
2024-03-31T07:24:38.581Z,11.78
2024-03-31T07:25:38.564Z,11.79
2024-03-31T07:26:38.605Z,11.77
2024-03-31T07:27:38.648Z,11.81
2024-03-31T07:28:38.610Z,11.78
2024-03-31T07:29:38.660Z,11.82
2024-03-31T07:30:38.480Z,11.79
2024-03-31T07:31:38.471Z,11.81
2024-03-31T07:32:38.458Z,11.79
2024-03-31T07:33:38.445Z,11.82
2024-03-31T07:34:38.427Z,11.82
2024-03-31T07:35:38.420Z,11.84
2024-03-31T07:36:40.389Z,11.87
2024-03-31T07:37:38.388Z,11.84
2024-03-31T07:38:38.385Z,11.84
2024-03-31T07:39:38.377Z,11.93
2024-03-31T07:40:38.343Z,11.85
2024-03-31T07:41:38.355Z,11.87
2024-03-31T07:42:38.330Z,11.88
2024-03-31T07:43:38.308Z,11.98
2024-03-31T07:44:38.293Z,12.04
2024-03-31T07:45:38.301Z,11.98
2024-03-31T07:46:38.267Z,11.97
2024-03-31T07:47:38.257Z,12.03
2024-03-31T07:48:38.254Z,12.11
2024-03-31T07:49:38.248Z,12.07
2024-03-31T07:50:38.229Z,12.11
2024-03-31T07:51:38.202Z,12.08
2024-03-31T07:52:38.203Z,12.08
2024-03-31T07:53:38.175Z,12.23
2024-03-31T07:54:38.160Z,12.37
2024-03-31T07:55:38.149Z,12.23
2024-03-31T07:56:38.134Z,12.25
2024-03-31T07:57:38.138Z,12.23
2024-03-31T07:58:38.107Z,12.38
2024-03-31T07:59:38.095Z,12.31
2024-03-31T08:00:38.079Z,12.25
2024-03-31T08:01:38.070Z,12.31
2024-03-31T08:02:38.053Z,12.25
2024-03-31T08:03:38.047Z,12.30
2024-03-31T08:04:38.028Z,12.33
2024-03-31T08:05:38.027Z,12.23
2024-03-31T08:06:37.999Z,12.26
2024-03-31T08:07:37.989Z,12.26
2024-03-31T08:08:37.986Z,12.23
2024-03-31T08:09:37.972Z,12.19
2024-03-31T08:10:37.954Z,12.25
2024-03-31T08:11:37.938Z,12.23
2024-03-31T08:12:37.975Z,12.26
2024-03-31T08:13:37.936Z,12.21
2024-03-31T08:14:37.896Z,12.19
2024-03-31T08:15:37.886Z,12.19
2024-03-31T08:16:37.875Z,12.23
2024-03-31T08:17:37.860Z,12.34
2024-03-31T08:18:37.838Z,12.31
2024-03-31T08:19:37.832Z,12.26
2024-03-31T08:20:37.822Z,12.36
2024-03-31T08:21:37.808Z,12.37
2024-03-31T08:22:37.804Z,12.41
2024-03-31T08:23:37.794Z,12.41
2024-03-31T08:24:37.776Z,12.54
2024-03-31T08:25:37.891Z,12.44
2024-03-31T08:26:37.737Z,12.55
2024-03-31T08:27:37.724Z,12.52
2024-03-31T08:28:37.713Z,12.55
2024-03-31T08:29:37.709Z,12.55
2024-03-31T08:30:37.719Z,12.61
2024-03-31T08:31:37.681Z,12.55
2024-03-31T08:32:37.668Z,12.62
2024-03-31T08:33:37.653Z,12.59
2024-03-31T08:34:37.630Z,12.62
2024-03-31T08:35:37.622Z,12.56
2024-03-31T08:36:37.613Z,12.61
2024-03-31T08:37:37.595Z,12.59
2024-03-31T08:38:37.580Z,12.59
2024-03-31T08:39:37.569Z,12.61
2024-03-31T08:40:37.556Z,12.58
2024-03-31T08:41:37.543Z,12.62
2024-03-31T08:42:37.528Z,12.58
2024-03-31T08:43:37.515Z,12.49
2024-03-31T08:44:37.513Z,12.62
2024-03-31T08:45:37.501Z,12.59
2024-03-31T08:46:37.476Z,12.62
2024-03-31T08:47:37.525Z,12.59
2024-03-31T08:48:37.481Z,12.70
2024-03-31T08:49:37.439Z,12.69
2024-03-31T08:50:37.425Z,12.73
2024-03-31T08:51:37.432Z,12.74
2024-03-31T08:52:37.412Z,12.76
2024-03-31T08:53:37.387Z,12.85
2024-03-31T08:54:37.400Z,12.91
2024-03-31T08:55:37.362Z,12.92
2024-03-31T08:56:37.347Z,12.95
2024-03-31T08:57:37.339Z,12.88
2024-03-31T08:58:37.321Z,12.91
2024-03-31T08:59:37.311Z,12.91
2024-03-31T09:00:37.297Z,12.95
2024-03-31T09:01:37.294Z,12.98
2024-03-31T09:02:37.269Z,12.95
2024-03-31T09:03:37.266Z,12.92
2024-03-31T09:04:37.245Z,13.07
2024-03-31T09:05:37.235Z,13.04
2024-03-31T09:06:37.223Z,13.03
2024-03-31T09:07:39.418Z,13.06
2024-03-31T09:08:41.332Z,13.10
2024-03-31T09:09:37.182Z,13.10
2024-03-31T09:10:37.223Z,13.06
2024-03-31T09:11:37.158Z,13.07
2024-03-31T09:12:37.143Z,13.09
2024-03-31T09:13:37.144Z,13.09
2024-03-31T09:14:37.121Z,13.09
2024-03-31T09:15:37.107Z,13.09
2024-03-31T09:16:37.095Z,13.01
2024-03-31T09:17:37.106Z,13.01
2024-03-31T09:18:37.066Z,13.04
2024-03-31T09:19:37.059Z,12.96
2024-03-31T09:20:37.049Z,12.92
2024-03-31T09:21:37.032Z,12.92
2024-03-31T09:22:37.015Z,12.94
2024-03-31T09:23:37.005Z,12.92
2024-03-31T09:24:36.986Z,12.94
2024-03-31T09:25:36.985Z,12.96
2024-03-31T09:26:36.966Z,12.89
2024-03-31T09:27:36.955Z,12.98
2024-03-31T09:28:36.957Z,12.92
2024-03-31T09:29:36.928Z,13.04
2024-03-31T09:30:36.914Z,13.04
2024-03-31T09:31:36.907Z,13.09
2024-03-31T09:32:36.896Z,13.07
2024-03-31T09:33:36.887Z,13.14
2024-03-31T09:34:36.863Z,13.19
2024-03-31T09:35:36.853Z,13.25
2024-03-31T09:36:36.843Z,13.25
2024-03-31T09:37:36.826Z,13.32
2024-03-31T09:38:36.815Z,13.43
2024-03-31T09:39:36.802Z,13.65
2024-03-31T09:40:36.787Z,13.71
2024-03-31T09:41:36.779Z,13.86
2024-03-31T09:42:36.760Z,14.06
2024-03-31T09:43:36.751Z,14.21
2024-03-31T09:44:36.737Z,14.29
2024-03-31T09:45:36.725Z,14.42
2024-03-31T09:46:36.712Z,14.48
2024-03-31T09:47:36.704Z,14.59
2024-03-31T09:48:36.687Z,14.63
2024-03-31T09:49:36.696Z,14.75
2024-03-31T09:50:36.671Z,14.79
2024-03-31T09:51:36.656Z,14.71
2024-03-31T09:52:36.642Z,14.71
2024-03-31T09:53:36.632Z,14.79
2024-03-31T09:54:36.619Z,14.85
2024-03-31T09:55:36.611Z,14.93
2024-03-31T09:56:36.595Z,14.80
2024-03-31T09:57:36.586Z,14.71
2024-03-31T09:58:36.572Z,14.75
2024-03-31T09:59:36.563Z,14.72
2024-03-31T10:00:36.599Z,14.87
2024-03-31T10:01:36.540Z,14.80
2024-03-31T10:02:36.526Z,14.82
2024-03-31T10:03:36.524Z,14.95
2024-03-31T10:04:36.502Z,15.03
2024-03-31T10:05:36.507Z,15.00
2024-03-31T10:06:36.480Z,14.94
2024-03-31T10:07:36.471Z,14.97
2024-03-31T10:08:36.460Z,14.93
2024-03-31T10:09:36.448Z,14.83
2024-03-31T10:10:36.437Z,14.80
2024-03-31T10:11:36.429Z,14.75
2024-03-31T10:12:36.412Z,14.69
2024-03-31T10:13:38.535Z,14.78
2024-03-31T10:14:36.395Z,14.78
2024-03-31T10:15:36.384Z,14.80
2024-03-31T10:16:36.381Z,14.74
2024-03-31T10:17:36.362Z,14.74
2024-03-31T10:18:36.347Z,14.72
2024-03-31T10:19:36.335Z,14.78
2024-03-31T10:20:36.328Z,14.75
2024-03-31T10:21:36.326Z,14.71
2024-03-31T10:22:36.300Z,14.74
2024-03-31T10:23:36.293Z,14.72
2024-03-31T10:24:36.293Z,14.83
2024-03-31T10:25:36.270Z,14.66
2024-03-31T10:26:36.264Z,14.80
2024-03-31T10:27:36.245Z,14.80
2024-03-31T10:28:36.234Z,14.83
2024-03-31T10:29:36.231Z,14.83
2024-03-31T10:30:36.210Z,15.03
2024-03-31T10:31:36.205Z,15.13
2024-03-31T10:32:36.220Z,15.19
2024-03-31T10:33:41.024Z,15.20
2024-03-31T10:34:36.169Z,15.37
2024-03-31T10:35:36.158Z,15.48
2024-03-31T10:36:36.149Z,15.44
2024-03-31T10:37:36.143Z,15.66
2024-03-31T10:38:36.171Z,15.68
2024-03-31T10:39:36.122Z,15.74
2024-03-31T10:40:36.103Z,15.85
2024-03-31T10:41:37.336Z,15.86
2024-03-31T10:42:36.085Z,15.91
2024-03-31T10:43:36.076Z,15.89
2024-03-31T10:44:36.059Z,15.95
2024-03-31T10:45:36.050Z,15.96
2024-03-31T10:46:36.036Z,16.01
2024-03-31T10:47:36.027Z,16.11
2024-03-31T10:48:36.016Z,16.16
2024-03-31T10:49:36.009Z,16.07
2024-03-31T10:50:35.995Z,16.16
2024-03-31T10:51:35.984Z,16.10
2024-03-31T10:52:35.976Z,16.27
2024-03-31T10:53:35.981Z,16.23
2024-03-31T10:54:35.957Z,16.27
2024-03-31T10:55:35.964Z,16.22
2024-03-31T10:56:40.293Z,16.27
2024-03-31T10:57:35.924Z,16.26
2024-03-31T10:58:35.911Z,16.26
2024-03-31T10:59:35.906Z,16.23
2024-03-31T11:00:35.891Z,16.25
2024-03-31T11:01:35.885Z,16.11
2024-03-31T11:02:35.874Z,16.22
2024-03-31T11:03:35.867Z,16.25
2024-03-31T11:04:35.856Z,16.22
2024-03-31T11:05:35.854Z,16.40
2024-03-31T11:06:35.831Z,16.41
2024-03-31T11:07:35.828Z,16.51
2024-03-31T11:08:35.811Z,16.44
2024-03-31T11:09:35.813Z,16.51
2024-03-31T11:10:35.790Z,16.60
2024-03-31T11:11:35.784Z,16.65
2024-03-31T11:12:35.773Z,16.87
2024-03-31T11:13:35.762Z,16.84
2024-03-31T11:14:35.752Z,16.85
2024-03-31T11:15:35.787Z,16.85
2024-03-31T11:16:35.739Z,16.85
2024-03-31T11:17:35.728Z,16.95
2024-03-31T11:18:35.713Z,17.09
2024-03-31T11:19:35.706Z,17.15
2024-03-31T11:20:35.693Z,17.28
2024-03-31T11:21:35.691Z,17.30
2024-03-31T11:22:35.676Z,17.60
2024-03-31T11:23:35.669Z,17.71
2024-03-31T11:24:35.655Z,17.80
2024-03-31T11:25:35.667Z,17.91
2024-03-31T11:26:35.638Z,17.87
2024-03-31T11:27:35.635Z,18.01
2024-03-31T11:28:35.620Z,17.95
2024-03-31T11:29:35.608Z,18.01
2024-03-31T11:30:35.603Z,18.07
2024-03-31T11:31:35.591Z,18.07
2024-03-31T11:32:35.584Z,18.09
2024-03-31T11:33:35.578Z,17.87
2024-03-31T11:34:35.581Z,17.54
2024-03-31T11:35:35.567Z,17.40
2024-03-31T11:36:35.553Z,17.12
2024-03-31T11:37:35.562Z,16.96
2024-03-31T11:38:35.529Z,16.98
2024-03-31T11:39:35.527Z,17.07
2024-03-31T11:40:35.538Z,17.14
2024-03-31T11:41:35.513Z,17.28
2024-03-31T11:42:36.296Z,17.42
2024-03-31T11:43:35.486Z,17.25
2024-03-31T11:44:35.477Z,17.17
2024-03-31T11:45:35.464Z,17.24
2024-03-31T11:46:35.463Z,17.22
2024-03-31T11:47:35.501Z,17.05
2024-03-31T11:48:35.447Z,17.07
2024-03-31T11:49:35.429Z,17.27
2024-03-31T11:50:35.421Z,17.36
2024-03-31T11:51:35.410Z,17.58
2024-03-31T11:52:35.406Z,17.81
2024-03-31T11:53:35.393Z,17.96
2024-03-31T11:54:35.392Z,18.11
2024-03-31T11:55:35.381Z,18.26
2024-03-31T11:56:35.370Z,18.49
2024-03-31T11:57:35.370Z,18.59
2024-03-31T11:58:35.381Z,18.94
2024-03-31T11:59:35.340Z,19.05
2024-03-31T12:00:35.333Z,19.25
2024-03-31T12:01:35.326Z,19.32
2024-03-31T12:02:35.317Z,19.52
2024-03-31T12:03:35.322Z,19.72
2024-03-31T12:04:35.302Z,19.90
2024-03-31T12:05:35.289Z,19.89
2024-03-31T12:06:35.283Z,19.83
2024-03-31T12:07:35.274Z,19.85
2024-03-31T12:08:46.108Z,19.89
2024-03-31T12:10:35.280Z,20.08
2024-03-31T12:11:35.253Z,20.05
2024-03-31T12:12:35.241Z,20.05
2024-03-31T12:13:35.238Z,20.17
2024-03-31T12:14:35.220Z,20.19
2024-03-31T12:15:35.216Z,20.33
2024-03-31T12:16:35.203Z,20.37
2024-03-31T12:17:35.200Z,20.42
2024-03-31T12:18:35.191Z,20.37
2024-03-31T12:19:35.196Z,20.33
2024-03-31T12:20:35.178Z,20.35
2024-03-31T12:21:35.171Z,20.51
2024-03-31T12:22:35.163Z,20.46
2024-03-31T12:23:35.163Z,20.48
2024-03-31T12:24:35.158Z,20.31
2024-03-31T12:25:35.144Z,20.30
2024-03-31T12:26:35.134Z,20.33
2024-03-31T12:27:35.136Z,20.20
2024-03-31T12:28:35.172Z,20.05
2024-03-31T12:29:35.127Z,19.90
2024-03-31T12:30:35.113Z,19.83
2024-03-31T12:31:35.104Z,19.89
2024-03-31T12:32:35.093Z,19.90
2024-03-31T12:33:35.093Z,20.08
2024-03-31T12:34:35.084Z,20.01
2024-03-31T12:35:35.080Z,20.15
2024-03-31T12:36:35.068Z,20.17
2024-03-31T12:37:35.083Z,20.15
2024-03-31T12:38:35.052Z,20.33
2024-03-31T12:39:35.092Z,20.34
2024-03-31T12:40:35.039Z,20.38
2024-03-31T12:41:35.056Z,20.30
2024-03-31T12:42:35.025Z,20.34
2024-03-31T12:43:35.023Z,20.35
2024-03-31T12:44:35.017Z,20.31
2024-03-31T12:45:35.026Z,20.34
2024-03-31T12:46:38.058Z,20.10
2024-03-31T12:47:34.997Z,20.05
2024-03-31T12:48:34.991Z,20.10
2024-03-31T12:49:34.982Z,20.05
2024-03-31T12:50:34.978Z,19.94
2024-03-31T12:51:34.973Z,19.87
2024-03-31T12:52:34.960Z,19.82
2024-03-31T12:53:34.966Z,19.53
2024-03-31T12:54:34.945Z,19.53
2024-03-31T12:55:34.940Z,19.50
2024-03-31T12:56:34.929Z,19.60
2024-03-31T12:57:34.934Z,19.72
2024-03-31T12:58:34.917Z,19.62
2024-03-31T12:59:34.912Z,19.67
2024-03-31T13:00:34.904Z,19.70
2024-03-31T13:01:34.919Z,19.75
2024-03-31T13:02:34.888Z,19.78
2024-03-31T13:03:34.897Z,19.83